Time;durP1;ratioP1;P1;durP2;ratioP2;P2;SDS_P1;SDS_P2;PMS_P1;PMS_P2;Temp;Humidity;BMP_temperature;BMP_pressure;BME280_temperature;BME280_humidity;BME280_pressure;Samples;Min_cycle;Max_cycle;Signal;HPM_P1;HPM_P2
2021/10/29 00:01:31;;;;;;;3.38;3.08;;;18.40;66.30;;;;;;5052960;28;20207;-61
2021/10/29 00:03:57;;;;;;;3.28;3.05;;;18.40;66.30;;;;;;5054155;28;20186;-61
2021/10/29 00:06:22;;;;;;;3.30;3.00;;;18.40;66.30;;;;;;5054083;28;20580;-60
2021/10/29 00:08:51;;;;;;;3.67;3.38;;;18.40;66.30;;;;;;5052914;28;20210;-60
2021/10/29 00:11:16;;;;;;;3.47;3.17;;;18.40;66.30;;;;;;5053824;28;20179;-60
2021/10/29 00:13:42;;;;;;;3.45;3.15;;;18.40;66.30;;;;;;5053380;28;20567;-61
2021/10/29 00:16:07;;;;;;;3.53;3.22;;;18.30;66.30;;;;;;5053196;28;20175;-59
2021/10/29 00:18:33;;;;;;;3.70;3.40;;;18.40;66.30;;;;;;5053207;28;20179;-61
2021/10/29 00:20:58;;;;;;;3.80;3.50;;;18.30;66.20;;;;;;5053628;28;20194;-59
2021/10/29 00:23:25;;;;;;;3.42;3.13;;;18.30;66.20;;;;;;5052994;28;20190;-60
2021/10/29 00:25:50;;;;;;;3.45;3.13;;;18.30;66.30;;;;;;5053176;28;20182;-60
2021/10/29 00:28:16;;;;;;;3.33;3.03;;;18.30;66.20;;;;;;5052975;28;20521;-60
2021/10/29 00:30:41;;;;;;;3.50;3.20;;;18.30;66.20;;;;;;5052525;28;20183;-61
2021/10/29 00:33:07;;;;;;;3.40;3.10;;;18.30;67.00;;;;;;5053318;28;20274;-61
2021/10/29 00:35:32;;;;;;;3.70;3.40;;;18.30;66.20;;;;;;5052998;28;20209;-61
2021/10/29 00:37:58;;;;;;;3.40;3.10;;;18.30;66.20;;;;;;5052620;28;20182;-61
2021/10/29 00:40:23;;;;;;;3.38;3.08;;;18.20;66.10;;;;;;5053191;28;20179;-59
2021/10/29 00:42:49;;;;;;;3.47;3.20;;;18.30;66.20;;;;;;5052826;28;20257;-60
2021/10/29 00:45:14;;;;;;;3.15;2.90;;;18.30;66.20;;;;;;5052726;28;20175;-61
2021/10/29 00:47:40;;;;;;;3.20;2.90;;;18.30;66.20;;;;;;5053075;28;20178;-60
2021/10/29 00:50:06;;;;;;;3.35;3.05;;;18.30;66.20;;;;;;5052742;28;20570;-60
2021/10/29 00:52:31;;;;;;;3.75;3.10;;;18.30;66.20;;;;;;5052656;28;20579;-60
2021/10/29 00:54:57;;;;;;;3.30;3.08;;;18.30;66.20;;;;;;5051687;28;20195;-60
2021/10/29 00:57:22;;;;;;;3.63;3.33;;;18.20;66.10;;;;;;5052113;28;20232;-61
2021/10/29 00:59:49;;;;;;;3.92;3.63;;;18.20;66.10;;;;;;5051707;28;20662;-62
2021/10/29 01:02:15;;;;;;;3.10;2.90;;;18.20;66.10;;;;;;5052946;28;20265;-61
2021/10/29 01:04:41;;;;;;;3.72;3.22;;;18.20;66.10;;;;;;5051953;28;20581;-60
2021/10/29 01:07:06;;;;;;;3.47;3.13;;;18.20;66.10;;;;;;5052941;28;20672;-60
2021/10/29 01:09:32;;;;;;;3.65;3.35;;;18.20;66.10;;;;;;5052442;28;20174;-60
2021/10/29 01:11:57;;;;;;;3.75;3.30;;;18.20;66.10;;;;;;5052428;28;20175;-59
2021/10/29 01:14:23;;;;;;;3.47;3.17;;;18.20;66.10;;;;;;5052997;28;20174;-60
2021/10/29 01:16:49;;;;;;;3.70;3.40;;;18.20;66.10;;;;;;5052574;28;20171;-61
2021/10/29 01:19:14;;;;;;;3.13;2.85;;;18.20;66.10;;;;;;5052153;28;20167;-60
2021/10/29 01:21:40;;;;;;;3.65;3.35;;;18.20;66.10;;;;;;5052260;28;20203;-60
2021/10/29 01:24:07;;;;;;;3.65;3.35;;;18.20;66.10;;;;;;5052232;28;20596;-61
2021/10/29 01:26:33;;;;;;;3.25;3.05;;;18.20;66.10;;;;;;5051605;28;20175;-61
2021/10/29 01:28:59;;;;;;;3.58;3.28;;;18.20;66.10;;;;;;5052805;28;20183;-61
2021/10/29 01:31:24;;;;;;;3.45;3.10;;;18.20;66.10;;;;;;5052707;28;20166;-60
2021/10/29 01:33:50;;;;;;;3.67;3.38;;;18.10;66.00;;;;;;5051680;28;20174;-61
2021/10/29 01:36:15;;;;;;;3.70;3.40;;;18.10;66.00;;;;;;5052569;28;20179;-60
2021/10/29 01:38:42;;;;;;;3.40;3.13;;;18.10;66.00;;;;;;5052479;28;20175;-61
2021/10/29 01:41:09;;;;;;;3.58;3.28;;;18.10;66.00;;;;;;5055961;28;20218;-60
2021/10/29 01:43:42;;;;;;;3.65;3.35;;;18.10;66.00;;;;;;5056245;28;20222;-60
2021/10/29 01:46:07;;;;;;;3.95;3.17;;;18.10;66.10;;;;;;5056484;28;20646;-60
2021/10/29 01:48:33;;;;;;;3.47;3.20;;;18.10;66.00;;;;;;5055576;28;20179;-61
2021/10/29 01:50:58;;;;;;;3.63;3.35;;;18.10;66.00;;;;;;5056432;28;20189;-61
2021/10/29 01:53:24;;;;;;;3.33;3.13;;;18.10;66.00;;;;;;5054487;28;20175;-61
2021/10/29 01:55:50;;;;;;;3.72;3.42;;;18.10;66.00;;;;;;5055864;28;20634;-61
2021/10/29 01:58:16;;;;;;;3.60;3.30;;;18.10;66.00;;;;;;5056474;28;20174;-61
2021/10/29 02:00:42;;;;;;;3.20;3.00;;;18.10;66.00;;;;;;5055542;28;20184;-61
2021/10/29 02:03:07;;;;;;;4.32;3.92;;;18.10;66.00;;;;;;5056293;28;20218;-60
2021/10/29 02:05:33;;;;;;;3.97;3.47;;;18.10;66.00;;;;;;5055951;28;20171;-60
2021/10/29 02:07:58;;;;;;;3.70;3.40;;;18.10;66.00;;;;;;5055423;28;20183;-60
2021/10/29 02:10:24;;;;;;;3.25;2.85;;;18.00;66.00;;;;;;5056252;28;20520;-59
2021/10/29 02:12:49;;;;;;;3.72;3.42;;;18.00;65.90;;;;;;5055958;28;20209;-59
2021/10/29 02:15:15;;;;;;;3.70;3.40;;;18.00;65.90;;;;;;5055651;28;20186;-60
2021/10/29 02:17:40;;;;;;;3.20;2.97;;;18.00;65.90;;;;;;5055746;28;20191;-61
2021/10/29 02:20:06;;;;;;;3.67;3.38;;;18.00;65.90;;;;;;5055788;28;20595;-60
2021/10/29 02:22:32;;;;;;;3.63;3.33;;;18.00;65.90;;;;;;5054632;28;20202;-61
2021/10/29 02:24:58;;;;;;;3.53;3.22;;;18.00;65.90;;;;;;5056054;28;20179;-60
2021/10/29 02:27:23;;;;;;;3.63;3.33;;;18.00;65.90;;;;;;5055982;28;20266;-60
2021/10/29 02:29:49;;;;;;;3.40;3.10;;;18.00;65.90;;;;;;5054937;28;20173;-60
2021/10/29 02:32:14;;;;;;;3.38;3.08;;;18.00;65.90;;;;;;5055505;28;20312;-61
2021/10/29 02:34:40;;;;;;;2.90;2.70;;;18.00;65.90;;;;;;5055292;28;20167;-61
2021/10/29 02:37:05;;;;;;;3.33;3.03;;;18.00;65.90;;;;;;5054904;28;20182;-61
2021/10/29 02:39:31;;;;;;;3.65;3.35;;;18.00;65.90;;;;;;5055199;28;20622;-61
2021/10/29 02:41:56;;;;;;;3.45;2.70;;;18.00;65.90;;;;;;5055560;28;20233;-61
2021/10/29 02:44:22;;;;;;;2.97;2.78;;;18.00;65.90;;;;;;5053805;28;20223;-60
2021/10/29 02:46:47;;;;;;;3.45;3.15;;;18.00;66.80;;;;;;5054066;28;20214;-61
2021/10/29 02:49:13;;;;;;;3.55;3.25;;;17.90;65.90;;;;;;5054364;28;20180;-61
2021/10/29 02:51:38;;;;;;;3.80;3.50;;;18.00;65.90;;;;;;5052702;28;20232;-61
2021/10/29 02:54:04;;;;;;;3.50;3.20;;;17.90;65.80;;;;;;5054323;28;20167;-61
2021/10/29 02:56:29;;;;;;;3.55;3.25;;;17.90;65.80;;;;;;5053802;28;20182;-61
2021/10/29 02:58:55;;;;;;;2.90;2.70;;;18.00;65.90;;;;;;5053366;28;20642;-62
2021/10/29 03:01:21;;;;;;;3.70;3.40;;;17.90;65.80;;;;;;5054039;28;20549;-60
2021/10/29 03:03:46;;;;;;;3.38;3.08;;;17.90;66.00;;;;;;5053174;28;20638;-61
2021/10/29 03:06:12;;;;;;;3.70;3.40;;;17.90;65.90;;;;;;5053914;28;20270;-60
2021/10/29 03:08:37;;;;;;;3.65;3.35;;;17.90;65.90;;;;;;5053808;28;20167;-59
2021/10/29 03:11:03;;;;;;;3.58;3.28;;;17.90;65.90;;;;;;5053075;28;20226;-60
2021/10/29 03:13:29;;;;;;;3.50;3.20;;;17.90;65.80;;;;;;5053673;28;20685;-60
2021/10/29 03:15:54;;;;;;;3.00;2.80;;;17.90;65.90;;;;;;5053908;28;20179;-60
2021/10/29 03:18:20;;;;;;;3.63;3.28;;;17.90;65.90;;;;;;5053121;28;20233;-60
2021/10/29 03:20:46;;;;;;;3.47;3.17;;;17.90;65.90;;;;;;5053453;28;20634;-60
2021/10/29 03:23:13;;;;;;;3.35;3.05;;;17.90;65.90;;;;;;5053793;28;20588;-61
2021/10/29 03:25:39;;;;;;;3.10;2.90;;;17.90;65.90;;;;;;5052735;28;20167;-60
2021/10/29 03:28:05;;;;;;;3.58;3.28;;;17.90;65.90;;;;;;5053721;28;20186;-60
2021/10/29 03:30:30;;;;;;;3.15;2.95;;;17.90;65.90;;;;;;5053551;28;20572;-61
2021/10/29 03:32:57;;;;;;;3.55;3.25;;;17.90;65.90;;;;;;5052791;28;20630;-60
2021/10/29 03:35:23;;;;;;;3.47;3.17;;;17.90;65.90;;;;;;5053725;28;20175;-61
2021/10/29 03:40:37;;;;;;;3.72;3.42;;;17.90;66.70;;;;;;5052898;28;20638;-60
2021/10/29 03:43:13;;;;;;;3.45;3.15;;;17.80;65.80;;;;;;5018558;28;1000571;-61
2021/10/29 03:45:54;;;;;;;3.28;2.97;;;17.80;65.80;;;;;;5054234;28;20189;-60
2021/10/29 03:48:27;;;;;;;3.55;3.25;;;17.80;65.80;;;;;;5053774;28;20175;-59
2021/10/29 03:51:03;;;;;;;3.30;3.10;;;17.80;65.80;;;;;;5053999;28;20664;-60
2021/10/29 03:55:59;;;;;;;3.50;3.20;;;17.80;65.80;;;;;;5054394;28;20167;-61
2021/10/29 03:58:25;;;;;;;3.38;3.08;;;17.80;65.80;;;;;;5053947;28;20183;-61
2021/10/29 04:00:50;;;;;;;3.78;3.47;;;17.80;65.80;;;;;;5053038;28;20181;-61
2021/10/29 04:03:16;;;;;;;3.38;3.08;;;17.80;65.80;;;;;;5053335;28;20290;-62
2021/10/29 04:05:42;;;;;;;3.72;3.40;;;17.80;65.80;;;;;;5053804;28;20171;-61
2021/10/29 04:08:09;;;;;;;3.63;3.10;;;17.80;65.80;;;;;;5053048;28;20183;-60
2021/10/29 04:10:39;;;;;;;3.45;3.15;;;17.80;65.80;;;;;;5053736;28;20237;-60
2021/10/29 04:13:09;;;;;;;3.65;3.33;;;17.80;65.80;;;;;;5053910;28;20181;-59
2021/10/29 04:15:37;;;;;;;3.85;3.42;;;17.80;65.80;;;;;;5052965;28;20205;-61
2021/10/29 04:18:02;;;;;;;3.72;3.42;;;17.80;65.80;;;;;;5053844;28;20183;-61
2021/10/29 04:20:28;;;;;;;4.80;3.83;;;17.80;65.80;;;;;;5053573;28;20240;-61
2021/10/29 04:22:53;;;;;;;4.05;3.63;;;17.70;65.80;;;;;;5052346;28;20743;-61
2021/10/29 04:25:19;;;;;;;3.75;3.45;;;17.70;65.80;;;;;;5053414;28;20186;-60
2021/10/29 04:27:48;;;;;;;3.60;3.35;;;17.70;65.80;;;;;;5053087;28;20197;-61
2021/10/29 04:30:16;;;;;;;3.95;3.63;;;17.80;65.80;;;;;;5052659;28;20531;-61
2021/10/29 04:32:44;;;;;;;3.53;3.22;;;17.70;65.80;;;;;;5052864;28;20653;-60
2021/10/29 04:35:11;;;;;;;3.08;2.80;;;17.70;65.80;;;;;;5052845;28;20207;-61
2021/10/29 04:37:38;;;;;;;3.72;3.42;;;17.70;65.70;;;;;;5053139;28;20266;-61
2021/10/29 04:40:05;;;;;;;3.50;3.22;;;17.70;65.80;;;;;;5053273;28;20186;-61
2021/10/29 04:42:30;;;;;;;3.35;3.05;;;17.70;65.80;;;;;;5051933;28;20880;-60
2021/10/29 04:44:56;;;;;;;3.60;3.30;;;17.70;65.80;;;;;;5053305;28;20175;-61
2021/10/29 04:47:21;;;;;;;3.50;3.20;;;17.70;65.80;;;;;;5053456;28;20186;-60
2021/10/29 04:49:47;;;;;;;3.22;2.92;;;17.70;65.80;;;;;;5052236;28;20171;-60
2021/10/29 04:52:13;;;;;;;3.47;3.17;;;17.70;65.70;;;;;;5053210;28;20641;-60
2021/10/29 04:54:38;;;;;;;3.28;2.97;;;17.70;65.80;;;;;;5052719;28;20256;-60
2021/10/29 04:57:04;;;;;;;3.40;3.10;;;17.70;65.80;;;;;;5052503;28;20216;-61
2021/10/29 04:59:29;;;;;;;3.08;2.85;;;17.70;65.70;;;;;;5052516;28;20181;-61
2021/10/29 05:01:55;;;;;;;3.58;3.30;;;17.70;65.80;;;;;;5053091;28;20215;-60
2021/10/29 05:04:21;;;;;;;4.07;3.70;;;17.70;65.80;;;;;;5052191;28;20167;-60
2021/10/29 05:06:46;;;;;;;3.45;3.25;;;17.70;65.80;;;;;;5052608;28;20184;-59
2021/10/29 05:09:12;;;;;;;3.28;3.05;;;17.70;65.80;;;;;;5052768;28;20193;-59
2021/10/29 05:11:37;;;;;;;3.45;3.20;;;17.60;65.70;;;;;;5051978;28;20172;-59
2021/10/29 05:14:03;;;;;;;3.58;3.28;;;17.60;65.70;;;;;;5052755;28;20182;-60
2021/10/29 05:16:28;;;;;;;3.72;3.30;;;17.60;65.70;;;;;;5052622;28;20182;-60
2021/10/29 05:18:54;;;;;;;3.55;3.25;;;17.60;65.70;;;;;;5051975;28;20171;-59
2021/10/29 05:21:19;;;;;;;3.33;3.03;;;17.60;65.70;;;;;;5052683;28;20665;-60
2021/10/29 05:23:45;;;;;;;3.63;3.33;;;17.60;65.70;;;;;;5052376;28;20178;-59
2021/10/29 05:26:10;;;;;;;3.50;3.20;;;17.60;65.70;;;;;;5052142;28;20257;-60
2021/10/29 05:28:36;;;;;;;3.08;2.88;;;17.60;65.70;;;;;;5052351;28;20202;-60
2021/10/29 05:31:02;;;;;;;3.47;3.17;;;17.60;65.70;;;;;;5052773;28;20224;-60
2021/10/29 05:33:28;;;;;;;3.28;3.03;;;17.60;65.70;;;;;;5051991;28;20174;-60
2021/10/29 05:35:53;;;;;;;3.55;3.30;;;17.60;65.70;;;;;;5052518;28;20175;-60
2021/10/29 05:38:19;;;;;;;3.30;3.00;;;17.60;65.70;;;;;;5052454;28;20173;-59
2021/10/29 05:40:44;;;;;;;3.58;3.28;;;17.60;65.70;;;;;;5051531;28;20222;-59
2021/10/29 05:43:10;;;;;;;2.97;2.75;;;17.60;65.70;;;;;;5052467;28;20709;-59
2021/10/29 05:45:35;;;;;;;3.60;3.30;;;17.60;65.70;;;;;;5051752;28;20217;-59
2021/10/29 05:48:06;;;;;;;3.83;3.53;;;17.50;65.70;;;;;;5052566;28;20183;-59
2021/10/29 05:50:32;;;;;;;3.40;3.10;;;17.60;65.70;;;;;;5052342;28;20175;-58
2021/10/29 05:52:58;;;;;;;3.10;2.90;;;17.60;65.70;;;;;;5051771;28;20179;-59
2021/10/29 05:55:24;;;;;;;2.90;2.67;;;17.50;65.70;;;;;;5052602;28;20171;-60
2021/10/29 05:57:51;;;;;;;3.70;3.40;;;17.50;65.70;;;;;;5052136;28;20190;-61
2021/10/29 06:00:24;;;;;;;3.35;3.10;;;17.50;65.60;;;;;;5051605;28;20653;-60
2021/10/29 06:02:50;;;;;;;3.05;2.85;;;17.50;65.70;;;;;;5052037;28;20317;-60
2021/10/29 06:05:16;;;;;;;3.10;2.90;;;17.50;65.70;;;;;;5052183;28;20195;-59
2021/10/29 06:07:42;;;;;;;3.28;2.97;;;17.50;65.70;;;;;;5051191;28;20182;-59
2021/10/29 06:10:08;;;;;;;3.22;3.03;;;17.50;65.70;;;;;;5052449;28;20176;-60
2021/10/29 06:12:35;;;;;;;3.05;2.85;;;17.50;65.70;;;;;;5052155;28;20198;-60
2021/10/29 06:15:01;;;;;;;3.22;3.03;;;17.50;65.70;;;;;;5051570;28;20538;-60
2021/10/29 06:17:28;;;;;;;3.25;3.05;;;17.50;65.70;;;;;;5052310;28;20178;-60
2021/10/29 06:19:54;;;;;;;3.10;2.88;;;17.50;65.70;;;;;;5052024;28;20175;-61
2021/10/29 06:22:25;;;;;;;3.20;2.90;;;17.50;65.70;;;;;;5051109;28;20602;-60
2021/10/29 06:24:52;;;;;;;3.35;3.15;;;17.50;65.60;;;;;;5052320;28;20573;-59
2021/10/29 06:29:43;;;;;;;3.33;3.03;;;17.50;65.70;;;;;;5054995;28;20213;-61
2021/10/29 06:32:09;;;;;;;3.50;3.20;;;17.50;65.60;;;;;;5055702;28;20182;-60
2021/10/29 06:34:34;;;;;;;3.55;3.25;;;17.50;65.60;;;;;;5055480;28;20175;-64
2021/10/29 06:37:05;;;;;;;4.00;3.33;;;17.50;65.90;;;;;;5053960;28;20613;-65
2021/10/29 06:39:30;;;;;;;3.08;2.75;;;17.50;65.80;;;;;;5055644;28;20182;-66
2021/10/29 06:41:57;;;;;;;4.43;3.63;;;17.50;65.70;;;;;;5054744;28;20214;-62
2021/10/29 06:59:11;;;;;;;4.72;3.25;;;17.60;65.70;;;;;;5066191;28;20699;-62
2021/10/29 07:00:33;;;;;;;3.78;3.47;;;17.60;65.90;;;;;;5069565;28;20252;-64
2021/10/29 07:41:05;;;;;;;4.25;3.85;;;17.60;65.90;;;;;;5043081;28;20178;-63
2021/10/29 07:43:38;;;;;;;4.80;3.55;;;17.60;65.80;;;;;;5073748;28;20254;-61
2021/10/29 07:46:04;;;;;;;3.42;3.13;;;17.60;65.80;;;;;;5074117;28;20178;-62
2021/10/29 07:48:32;;;;;;;3.40;3.08;;;17.60;65.70;;;;;;5073869;28;20182;-62
2021/10/29 07:50:57;;;;;;;3.47;3.17;;;17.70;65.80;;;;;;5074479;28;20201;-62
2021/10/29 07:53:23;;;;;;;3.92;3.50;;;17.70;65.70;;;;;;5073297;28;20194;-61
2021/10/29 07:55:48;;;;;;;3.88;3.30;;;17.70;65.60;;;;;;5073843;28;20553;-62
2021/10/29 07:58:15;;;;;;;4.50;3.10;;;17.70;65.60;;;;;;5074161;28;20177;-61
2021/10/29 08:00:41;;;;;;;4.10;3.30;;;17.80;65.60;;;;;;5073087;28;20209;-62
2021/10/29 08:03:07;;;;;;;3.50;3.05;;;17.80;65.50;;;;;;5073866;28;20218;-62
2021/10/29 08:05:34;;;;;;;3.53;3.22;;;17.80;65.50;;;;;;5073515;28;20170;-62
2021/10/29 08:07:59;;;;;;;4.45;3.10;;;17.80;65.50;;;;;;5073079;28;20209;-61
2021/10/29 08:10:36;;;;;;;4.00;3.60;;;17.90;65.50;;;;;;5073690;28;20209;-61
2021/10/29 08:13:03;;;;;;;3.65;3.33;;;17.90;65.50;;;;;;5073935;28;20178;-60
2021/10/29 08:15:29;;;;;;;3.38;3.05;;;17.90;65.50;;;;;;5073151;28;20175;-60
2021/10/29 08:17:55;;;;;;;5.60;3.53;;;17.90;65.50;;;;;;5073714;28;20186;-60
2021/10/29 08:20:23;;;;;;;3.00;2.70;;;17.90;65.50;;;;;;5072893;28;20174;-61
2021/10/29 08:22:50;;;;;;;4.18;3.33;;;17.90;65.70;;;;;;5073105;28;20209;-60
2021/10/29 08:25:16;;;;;;;3.08;2.88;;;17.90;65.80;;;;;;5073704;28;20173;-61
2021/10/29 08:27:41;;;;;;;3.40;3.10;;;17.90;66.70;;;;;;5072625;28;20261;-61
2021/10/29 08:30:08;;;;;;;3.30;3.00;;;17.90;65.90;;;;;;5073521;28;20175;-61
2021/10/29 08:32:35;;;;;;;3.47;3.03;;;17.90;66.10;;;;;;5073148;28;20182;-62
2021/10/29 08:35:01;;;;;;;3.33;3.03;;;17.90;66.00;;;;;;5071989;28;20210;-63
2021/10/29 08:37:28;;;;;;;3.90;3.28;;;17.90;66.00;;;;;;5073197;28;20657;-63
2021/10/29 08:39:54;;;;;;;3.65;3.05;;;17.90;66.10;;;;;;5073427;28;20176;-63
2021/10/29 08:42:20;;;;;;;3.17;2.88;;;17.90;66.00;;;;;;5072602;28;20607;-63
2021/10/29 08:44:45;;;;;;;3.10;2.80;;;18.00;66.00;;;;;;5071654;28;20707;-62
2021/10/29 08:47:11;;;;;;;3.88;3.47;;;18.00;65.80;;;;;;5073095;28;20672;-62
2021/10/29 08:49:36;;;;;;;3.38;3.03;;;18.10;65.60;;;;;;5071868;28;20174;-62
2021/10/29 08:52:04;;;;;;;3.78;3.03;;;18.10;65.90;;;;;;5072999;28;20170;-62
2021/10/29 08:54:30;;;;;;;4.25;3.50;;;18.20;65.30;;;;;;5072907;28;20194;-62
2021/10/29 08:56:56;;;;;;;3.85;3.13;;;18.20;65.20;;;;;;5072354;28;20679;-62
2021/10/29 08:59:27;;;;;;;5.20;3.88;;;18.30;65.30;;;;;;5073054;28;20228;-61
2021/10/29 09:01:56;;;;;;;3.63;3.33;;;18.30;65.20;;;;;;5072729;28;20222;-62
2021/10/29 09:04:48;;;;;;;3.47;3.20;;;18.40;65.10;;;;;;5072231;28;20201;-62
2021/10/29 09:31:27;;;;;;;4.28;3.72;;;18.60;65.40;;;;;;5072002;28;20177;-63
2021/10/29 09:33:57;;;;;;;4.65;3.05;;;18.60;65.40;;;;;;5072321;28;20269;-63
2021/10/29 09:36:36;;;;;;;3.33;3.03;;;18.60;65.50;;;;;;5072741;28;20182;-63
2021/10/29 09:39:16;;;;;;;3.17;2.92;;;18.60;65.60;;;;;;5072076;28;20183;-63
2021/10/29 09:41:42;;;;;;;4.07;3.22;;;18.60;65.60;;;;;;5072319;28;20256;-62
2021/10/29 09:44:14;;;;;;;3.65;3.28;;;18.70;65.60;;;;;;5072124;28;20226;-63
2021/10/29 09:46:55;;;;;;;4.38;3.38;;;18.70;65.70;;;;;;5071436;28;20637;-63
2021/10/29 09:49:27;;;;;;;3.60;3.30;;;18.60;65.70;;;;;;5072414;28;20571;-63
2021/10/29 09:52:07;;;;;;;4.30;3.40;;;18.60;66.50;;;;;;5071617;28;20189;-63
2021/10/29 09:54:53;;;;;;;4.15;3.05;;;18.70;65.80;;;;;;5072034;28;20197;-63
2021/10/29 09:57:19;;;;;;;3.72;3.30;;;18.60;65.90;;;;;;5072579;28;20185;-62
2021/10/29 09:59:44;;;;;;;3.45;2.95;;;18.60;66.00;;;;;;5071344;28;20531;-62
2021/10/29 10:02:18;;;;;;;3.03;2.75;;;18.60;66.10;;;;;;5076388;28;20235;-62
2021/10/29 10:04:44;;;;;;;3.35;3.05;;;18.60;66.10;;;;;;5075923;28;20174;-63
2021/10/29 10:07:09;;;;;;;3.10;2.90;;;18.60;66.10;;;;;;5057662;28;20541;-63
2021/10/29 10:09:35;;;;;;;3.50;3.20;;;18.60;65.90;;;;;;5075993;28;20170;-62
2021/10/29 10:12:02;;;;;;;3.33;3.00;;;18.60;65.90;;;;;;5074734;28;20178;-62
2021/10/29 10:14:27;;;;;;;4.03;3.55;;;18.60;65.80;;;;;;5057655;28;20560;-62
2021/10/29 10:16:53;;;;;;;3.72;3.42;;;18.60;65.80;;;;;;5074566;28;20204;-61
2021/10/29 10:19:19;;;;;;;3.25;3.00;;;18.70;65.80;;;;;;5074704;28;20537;-62
2021/10/29 10:21:50;;;;;;;3.53;3.22;;;18.70;65.80;;;;;;5073575;28;20233;-60
2021/10/29 10:24:18;;;;;;;3.05;2.85;;;18.70;65.90;;;;;;5076078;28;20170;-61
2021/10/29 10:27:15;;;;;;;3.15;2.95;;;18.60;65.90;;;;;;5074527;28;20178;-61
2021/10/29 10:30:36;;;;;;;3.20;2.90;;;18.60;65.90;;;;;;5073405;28;20186;-62
2021/10/29 10:43:41;;;;;;;6.25;3.22;;;18.60;66.30;;;;;;5067053;28;20226;-61
2021/10/29 10:48:52;;;;;;;5.57;2.90;;;18.70;66.60;;;;;;5074477;28;20174;-61
2021/10/29 10:54:08;;;;;;;6.75;3.38;;;18.70;66.80;;;;;;5075459;28;20607;-62
2021/10/29 11:05:36;;;;;;;5.95;3.42;;;18.80;67.10;;;;;;5075073;28;20177;-62
2021/10/29 11:10:56;;;;;;;3.97;2.92;;;18.80;67.10;;;;;;5074086;28;20261;-61
2021/10/29 11:13:26;;;;;;;4.53;3.33;;;18.90;67.20;;;;;;5074769;28;20166;-62
2021/10/29 11:16:02;;;;;;;3.83;3.33;;;18.90;67.10;;;;;;5074584;28;20261;-62
2021/10/29 11:18:30;;;;;;;4.50;2.53;;;18.90;67.00;;;;;;5074515;28;20178;-62
2021/10/29 11:21:13;;;;;;;4.70;2.90;;;19.00;67.10;;;;;;5074967;28;20559;-62
2021/10/29 11:23:38;;;;;;;4.03;2.95;;;19.00;67.00;;;;;;5073484;28;20193;-61
2021/10/29 11:26:09;;;;;;;3.50;3.10;;;18.90;67.90;;;;;;5056693;28;20178;-61
2021/10/29 11:28:40;;;;;;;4.55;3.03;;;18.80;67.10;;;;;;5072793;28;20269;-62
2021/10/29 11:31:10;;;;;;;3.83;3.17;;;18.80;67.20;;;;;;5073908;28;20217;-63
2021/10/29 11:33:42;;;;;;;4.13;2.83;;;18.80;67.20;;;;;;5074331;28;20173;-65
2021/10/29 11:36:09;;;;;;;4.50;3.00;;;18.90;67.10;;;;;;5074150;28;20665;-65
2021/10/29 11:38:37;;;;;;;3.13;2.47;;;18.90;67.00;;;;;;5073317;28;20224;-64
2021/10/29 11:41:05;;;;;;;4.18;2.70;;;18.90;67.10;;;;;;5074088;28;20641;-65
2021/10/29 11:43:31;;;;;;;4.85;3.33;;;18.80;67.10;;;;;;5073824;28;20631;-64
2021/10/29 11:45:57;;;;;;;4.22;2.70;;;18.80;67.30;;;;;;5073696;28;20182;-65
2021/10/29 11:48:24;;;;;;;4.53;2.92;;;18.80;67.30;;;;;;5073633;28;20190;-65
2021/10/29 11:51:11;;;;;;;3.58;3.28;;;18.70;67.20;;;;;;5073802;28;20182;-64
2021/10/29 11:53:46;;;;;;;3.20;2.90;;;18.70;67.20;;;;;;5073334;28;20179;-64
2021/10/29 11:59:19;;;;;;;3.45;2.80;;;18.70;67.20;;;;;;5052166;28;20247;-62
2021/10/29 12:07:23;;;;;;;4.32;2.80;;;18.70;67.40;;;;;;5069550;28;20186;-61
2021/10/29 12:09:50;;;;;;;5.85;3.45;;;18.60;67.30;;;;;;5071114;28;20181;-60
2021/10/29 12:12:18;;;;;;;5.05;3.05;;;18.60;67.30;;;;;;5053694;28;20175;-61
2021/10/29 12:14:45;;;;;;;4.15;3.35;;;18.60;67.40;;;;;;5053194;28;20183;-60
2021/10/29 12:17:19;;;;;;;3.88;2.83;;;18.60;67.30;;;;;;5053805;28;20183;-61
2021/10/29 12:19:46;;;;;;;4.07;3.35;;;18.60;67.30;;;;;;5066150;28;20174;-61
2021/10/29 12:22:46;;;;;;;3.90;3.00;;;18.60;67.30;;;;;;5073295;28;20206;-61
2021/10/29 12:27:38;;;;;;;3.92;2.72;;;18.60;67.20;;;;;;5072800;28;20178;-62
2021/10/29 12:30:07;;;;;;;3.42;2.97;;;18.60;67.20;;;;;;5073397;28;20181;-61
2021/10/29 12:33:37;;;;;;;5.20;2.65;;;18.60;67.20;;;;;;5073075;28;20178;-62
2021/10/29 13:03:01;;;;;;;3.97;2.85;;;18.90;66.30;;;;;;5052026;28;20747;-61
2021/10/29 13:05:26;;;;;;;2.95;2.75;;;18.90;66.20;;;;;;5051737;28;20543;-62
2021/10/29 13:07:52;;;;;;;3.00;2.70;;;18.90;66.20;;;;;;5034858;28;20661;-62
2021/10/29 13:10:18;;;;;;;3.38;2.65;;;18.90;66.30;;;;;;5058949;28;20630;-62
2021/10/29 13:13:08;;;;;;;3.75;2.70;;;19.00;66.30;;;;;;5071498;28;20182;-62
2021/10/29 13:15:33;;;;;;;3.80;2.72;;;19.00;66.20;;;;;;5072627;28;20181;-61
2021/10/29 13:18:07;;;;;;;5.00;2.92;;;19.00;66.10;;;;;;5072147;28;20179;-62
2021/10/29 13:20:57;;;;;;;3.45;3.15;;;19.10;66.00;;;;;;5072387;28;20174;-60
2021/10/29 13:23:42;;;;;;;2.92;2.72;;;19.10;65.90;;;;;;5071972;28;20304;-60
2021/10/29 13:27:26;;;;;;;3.30;3.00;;;19.10;65.80;;;;;;5072814;28;20174;-61
2021/10/29 13:50:54;;;;;;;4.95;2.95;;;19.20;65.40;;;;;;5076142;28;20525;-62
2021/10/29 13:56:12;;;;;;;2.97;2.67;;;19.20;65.40;;;;;;5076308;28;20223;-62
2021/10/29 13:58:54;;;;;;;3.17;2.75;;;19.20;65.30;;;;;;5075448;28;20162;-62
2021/10/29 14:30:30;;;;;;;3.30;3.00;;;19.00;65.80;;;;;;5055730;28;20174;-62
2021/10/29 14:33:13;;;;;;;2.40;2.30;;;18.90;65.80;;;;;;5055677;28;20177;-62
2021/10/29 14:35:46;;;;;;;2.80;2.60;;;18.90;65.90;;;;;;5055669;28;20183;-62
2021/10/29 14:40:41;;;;;;;2.95;2.75;;;18.90;66.00;;;;;;5054612;28;20258;-61
2021/10/29 14:43:30;;;;;;;3.28;2.83;;;18.80;66.10;;;;;;5055119;28;20689;-61
2021/10/29 14:49:00;;;;;;;2.70;2.50;;;18.80;66.20;;;;;;5017453;28;20192;-61
2021/10/29 14:51:47;;;;;;;3.30;3.00;;;18.70;66.30;;;;;;5055294;28;20550;-62
2021/10/29 15:02:43;;;;;;;2.88;2.67;;;18.60;66.70;;;;;;5054280;28;20206;-61
2021/10/29 15:26:47;;;;;;;2.80;2.60;;;18.40;67.20;;;;;;5074433;28;20296;-60
2021/10/29 15:29:20;;;;;;;2.60;2.40;;;18.40;67.30;;;;;;5074738;28;20174;-61
2021/10/29 15:45:39;;;;;;;2.78;2.58;;;18.30;67.30;;;;;;5073385;28;20543;-62
2021/10/29 15:50:35;;;;;;;2.83;2.55;;;18.30;67.20;;;;;;5073306;28;20548;-62
2021/10/29 15:53:02;;;;;;;3.03;2.75;;;18.30;67.80;;;;;;5074243;28;20187;-62
2021/10/29 15:55:43;;;;;;;2.95;2.60;;;18.30;67.30;;;;;;5074218;28;20212;-61
2021/10/29 16:17:02;;;;;;;5.40;2.67;;;18.20;67.20;;;;;;5073944;28;20258;-61
2021/10/29 16:17:19;;;;;;;3.28;2.72;;;18.20;67.20;;;;;;5053734;28;20704;-63
2021/10/29 16:19:45;;;;;;;5.20;3.03;;;18.20;67.10;;;;;;5052620;28;20183;-63
2021/10/29 16:22:18;;;;;;;2.72;2.55;;;18.20;67.00;;;;;;5053419;28;20715;-63
2021/10/29 16:24:54;;;;;;;3.67;3.20;;;18.20;67.10;;;;;;5053467;28;20186;-60
2021/10/29 16:27:20;;;;;;;4.97;3.13;;;18.40;67.10;;;;;;5053008;28;20197;-64
2021/10/29 16:29:49;;;;;;;3.38;3.08;;;18.50;67.00;;;;;;5053161;28;20182;-63
2021/10/29 16:32:19;;;;;;;4.75;2.97;;;18.60;66.70;;;;;;5053357;28;20176;-64
2021/10/29 16:34:45;;;;;;;6.03;2.60;;;18.80;66.30;;;;;;5052307;28;20179;-63
2021/10/29 16:37:10;;;;;;;2.88;2.50;;;19.00;65.70;;;;;;5053176;28;20183;-64
2021/10/29 16:39:36;;;;;;;4.70;2.55;;;19.30;65.10;;;;;;5052657;28;20688;-63
2021/10/29 16:42:01;;;;;;;4.53;2.88;;;19.50;64.50;;;;;;5052905;28;20242;-64
2021/10/29 16:44:27;;;;;;;2.50;2.30;;;19.70;63.70;;;;;;5052904;28;20586;-63
2021/10/29 16:46:52;;;;;;;4.22;2.53;;;20.10;62.90;;;;;;5052110;28;20187;-63
2021/10/29 16:49:22;;;;;;;2.72;2.53;;;20.30;62.00;;;;;;5052977;28;20293;-63
2021/10/29 16:51:47;;;;;;;2.95;2.47;;;20.50;61.40;;;;;;5053014;28;20542;-62
2021/10/29 16:54:13;;;;;;;4.13;2.45;;;20.60;61.20;;;;;;5052554;28;20633;-63
2021/10/29 16:56:38;;;;;;;5.30;2.45;;;20.60;61.00;;;;;;5052557;28;20182;-62
2021/10/29 16:59:04;;;;;;;3.28;2.30;;;20.60;61.00;;;;;;5053019;28;20175;-64
2021/10/29 17:01:29;;;;;;;2.97;2.33;;;20.60;61.20;;;;;;5051578;28;20571;-63
2021/10/29 17:03:55;;;;;;;2.95;2.67;;;20.50;61.30;;;;;;5052792;28;20270;-63
2021/10/29 17:06:21;;;;;;;3.08;2.55;;;20.50;61.40;;;;;;5053238;28;20177;-63
2021/10/29 17:08:47;;;;;;;3.47;2.30;;;20.50;61.50;;;;;;5051699;28;20179;-62
2021/10/29 17:11:13;;;;;;;2.20;2.00;;;20.50;61.60;;;;;;5068878;28;20282;-62
2021/10/29 17:13:40;;;;;;;3.08;2.75;;;20.50;61.50;;;;;;5072674;28;20174;-61
2021/10/29 17:16:06;;;;;;;2.40;2.20;;;20.50;61.60;;;;;;5072010;28;20174;-62
2021/10/29 17:18:32;;;;;;;3.05;2.10;;;20.50;61.70;;;;;;5072334;28;20209;-62
2021/10/29 17:21:00;;;;;;;1.90;1.73;;;20.40;61.90;;;;;;5072682;28;20185;-61
2021/10/29 17:23:25;;;;;;;2.85;2.10;;;20.30;62.10;;;;;;5072238;28;20213;-61
2021/10/29 17:25:51;;;;;;;2.58;2.08;;;20.20;62.40;;;;;;5072366;28;20166;-60